sensor_id;sensor_type;location;lat;lon;timestamp;temperature;humidity
4985;DHT22;2509;49.902;8.600;2022-09-20T00:02:37;11.20;99.90
4985;DHT22;2509;49.902;8.600;2022-09-20T00:05:39;11.20;99.90
4985;DHT22;2509;49.902;8.600;2022-09-20T00:08:42;11.20;99.90
4985;DHT22;2509;49.902;8.600;2022-09-20T00:11:43;11.30;99.90
4985;DHT22;2509;49.902;8.600;2022-09-20T00:14:45;11.30;99.90
4985;DHT22;2509;49.902;8.600;2022-09-20T00:17:48;11.30;99.90
4985;DHT22;2509;49.902;8.600;2022-09-20T00:20:50;11.30;99.90
4985;DHT22;2509;49.902;8.600;2022-09-20T00:23:52;11.30;99.90
4985;DHT22;2509;49.902;8.600;2022-09-20T00:26:54;11.30;99.90
4985;DHT22;2509;49.902;8.600;2022-09-20T00:29:56;11.30;99.90
4985;DHT22;2509;49.902;8.600;2022-09-20T00:33:00;11.30;99.90
4985;DHT22;2509;49.902;8.600;2022-09-20T00:36:01;11.30;99.90
4985;DHT22;2509;49.902;8.600;2022-09-20T00:39:02;11.30;99.90
4985;DHT22;2509;49.902;8.600;2022-09-20T00:42:05;11.40;99.90
4985;DHT22;2509;49.902;8.600;2022-09-20T00:45:09;11.40;99.90
4985;DHT22;2509;49.902;8.600;2022-09-20T00:48:16;11.40;99.90
4985;DHT22;2509;49.902;8.600;2022-09-20T00:51:25;11.40;99.90
4985;DHT22;2509;49.902;8.600;2022-09-20T00:54:29;11.40;99.90
4985;DHT22;2509;49.902;8.600;2022-09-20T00:57:32;11.30;99.90
4985;DHT22;2509;49.902;8.600;2022-09-20T01:00:36;11.30;99.90
4985;DHT22;2509;49.902;8.600;2022-09-20T01:03:41;11.20;99.90
4985;DHT22;2509;49.902;8.600;2022-09-20T01:06:44;11.20;99.90
4985;DHT22;2509;49.902;8.600;2022-09-20T01:09:46;11.10;99.90
4985;DHT22;2509;49.902;8.600;2022-09-20T01:12:49;11.00;99.90
4985;DHT22;2509;49.902;8.600;2022-09-20T01:15:52;11.00;99.90
4985;DHT22;2509;49.902;8.600;2022-09-20T01:18:58;11.00;99.90
4985;DHT22;2509;49.902;8.600;2022-09-20T01:22:04;10.90;99.90
4985;DHT22;2509;49.902;8.600;2022-09-20T01:25:14;10.90;99.90
4985;DHT22;2509;49.902;8.600;2022-09-20T01:28:18;10.90;99.90
4985;DHT22;2509;49.902;8.600;2022-09-20T01:31:24;10.80;99.90
4985;DHT22;2509;49.902;8.600;2022-09-20T01:34:30;10.80;99.90
4985;DHT22;2509;49.902;8.600;2022-09-20T01:37:43;10.70;99.90
4985;DHT22;2509;49.902;8.600;2022-09-20T01:40:55;10.70;99.90
4985;DHT22;2509;49.902;8.600;2022-09-20T01:44:08;10.60;99.90
4985;DHT22;2509;49.902;8.600;2022-09-20T01:47:19;10.50;99.90
4985;DHT22;2509;49.902;8.600;2022-09-20T01:50:32;10.40;99.90
4985;DHT22;2509;49.902;8.600;2022-09-20T01:53:54;10.40;99.90
4985;DHT22;2509;49.902;8.600;2022-09-20T01:57:22;10.30;99.90
4985;DHT22;2509;49.902;8.600;2022-09-20T02:00:36;10.30;99.90
4985;DHT22;2509;49.902;8.600;2022-09-20T02:03:54;10.30;99.90
4985;DHT22;2509;49.902;8.600;2022-09-20T02:07:25;10.30;99.90
4985;DHT22;2509;49.902;8.600;2022-09-20T02:10:46;10.30;99.90
4985;DHT22;2509;49.902;8.600;2022-09-20T02:14:02;10.30;99.90
4985;DHT22;2509;49.902;8.600;2022-09-20T02:17:10;10.30;99.90
4985;DHT22;2509;49.902;8.600;2022-09-20T02:20:22;10.30;99.90
4985;DHT22;2509;49.902;8.600;2022-09-20T02:23:39;10.20;99.90
4985;DHT22;2509;49.902;8.600;2022-09-20T02:26:53;10.20;99.90
4985;DHT22;2509;49.902;8.600;2022-09-20T02:30:09;10.10;99.90
4985;DHT22;2509;49.902;8.600;2022-09-20T02:33:26;10.10;99.90
4985;DHT22;2509;49.902;8.600;2022-09-20T02:36:40;10.10;99.90
4985;DHT22;2509;49.902;8.600;2022-09-20T02:39:54;10.00;99.90
4985;DHT22;2509;49.902;8.600;2022-09-20T02:43:06;9.90;99.90
4985;DHT22;2509;49.902;8.600;2022-09-20T02:46:16;9.80;99.90
4985;DHT22;2509;49.902;8.600;2022-09-20T02:49:25;9.90;99.90
4985;DHT22;2509;49.902;8.600;2022-09-20T02:52:32;9.80;99.90
4985;DHT22;2509;49.902;8.600;2022-09-20T02:55:40;9.80;99.90
4985;DHT22;2509;49.902;8.600;2022-09-20T02:58:51;9.80;99.90
4985;DHT22;2509;49.902;8.600;2022-09-20T03:02:03;9.70;99.90
4985;DHT22;2509;49.902;8.600;2022-09-20T03:05:16;9.70;99.90
4985;DHT22;2509;49.902;8.600;2022-09-20T03:08:32;9.70;99.90
4985;DHT22;2509;49.902;8.600;2022-09-20T03:11:42;9.60;99.90
4985;DHT22;2509;49.902;8.600;2022-09-20T03:14:51;9.50;99.90
4985;DHT22;2509;49.902;8.600;2022-09-20T03:18:06;9.50;99.90
4985;DHT22;2509;49.902;8.600;2022-09-20T03:21:24;9.60;99.90
4985;DHT22;2509;49.902;8.600;2022-09-20T03:24:38;9.60;99.90
4985;DHT22;2509;49.902;8.600;2022-09-20T03:27:49;9.60;99.90
4985;DHT22;2509;49.902;8.600;2022-09-20T03:31:02;9.50;99.90
4985;DHT22;2509;49.902;8.600;2022-09-20T03:34:13;9.50;99.90
4985;DHT22;2509;49.902;8.600;2022-09-20T03:37:45;9.40;99.90
4985;DHT22;2509;49.902;8.600;2022-09-20T03:41:09;9.40;99.90
4985;DHT22;2509;49.902;8.600;2022-09-20T03:44:26;9.40;99.90
4985;DHT22;2509;49.902;8.600;2022-09-20T03:47:45;9.30;99.90
4985;DHT22;2509;49.902;8.600;2022-09-20T03:50:56;9.40;99.90
4985;DHT22;2509;49.902;8.600;2022-09-20T03:54:41;9.40;99.90
4985;DHT22;2509;49.902;8.600;2022-09-20T03:58:04;9.40;99.90
4985;DHT22;2509;49.902;8.600;2022-09-20T04:01:30;9.40;99.90
4985;DHT22;2509;49.902;8.600;2022-09-20T04:04:41;9.40;99.90
4985;DHT22;2509;49.902;8.600;2022-09-20T04:07:56;9.30;99.90
4985;DHT22;2509;49.902;8.600;2022-09-20T04:11:07;9.30;99.90
4985;DHT22;2509;49.902;8.600;2022-09-20T04:14:15;9.30;99.90
4985;DHT22;2509;49.902;8.600;2022-09-20T04:17:28;9.30;99.90
4985;DHT22;2509;49.902;8.600;2022-09-20T04:20:39;9.30;99.90
4985;DHT22;2509;49.902;8.600;2022-09-20T04:23:51;9.40;99.90
4985;DHT22;2509;49.902;8.600;2022-09-20T04:27:00;9.40;99.90
4985;DHT22;2509;49.902;8.600;2022-09-20T04:30:04;9.40;99.90
4985;DHT22;2509;49.902;8.600;2022-09-20T04:33:14;9.40;99.90
4985;DHT22;2509;49.902;8.600;2022-09-20T04:36:31;9.30;99.90
4985;DHT22;2509;49.902;8.600;2022-09-20T04:39:41;9.30;99.90
4985;DHT22;2509;49.902;8.600;2022-09-20T04:47:17;9.30;99.90
4985;DHT22;2509;49.902;8.600;2022-09-20T04:50:56;9.30;99.90
4985;DHT22;2509;49.902;8.600;2022-09-20T04:58:09;9.10;99.90
4985;DHT22;2509;49.902;8.600;2022-09-20T05:01:59;9.10;99.90
4985;DHT22;2509;49.902;8.600;2022-09-20T05:05:54;9.20;99.90
4985;DHT22;2509;49.902;8.600;2022-09-20T05:09:19;9.20;99.90
4985;DHT22;2509;49.902;8.600;2022-09-20T05:12:49;9.20;99.90
4985;DHT22;2509;49.902;8.600;2022-09-20T05:15:57;9.20;99.90
4985;DHT22;2509;49.902;8.600;2022-09-20T05:19:15;9.10;99.90
4985;DHT22;2509;49.902;8.600;2022-09-20T05:22:55;9.10;99.90
4985;DHT22;2509;49.902;8.600;2022-09-20T05:26:16;9.10;99.90
4985;DHT22;2509;49.902;8.600;2022-09-20T05:29:25;9.10;99.90
4985;DHT22;2509;49.902;8.600;2022-09-20T05:32:35;9.10;99.90
4985;DHT22;2509;49.902;8.600;2022-09-20T05:35:44;9.00;99.90
4985;DHT22;2509;49.902;8.600;2022-09-20T05:38:51;9.10;99.90
4985;DHT22;2509;49.902;8.600;2022-09-20T05:41:57;9.10;99.90
4985;DHT22;2509;49.902;8.600;2022-09-20T05:45:15;9.20;99.90
4985;DHT22;2509;49.902;8.600;2022-09-20T05:48:25;9.30;99.90
4985;DHT22;2509;49.902;8.600;2022-09-20T05:51:40;9.30;99.90
4985;DHT22;2509;49.902;8.600;2022-09-20T05:55:03;9.30;99.90
4985;DHT22;2509;49.902;8.600;2022-09-20T05:58:25;9.40;99.90
4985;DHT22;2509;49.902;8.600;2022-09-20T06:01:32;9.50;99.90
4985;DHT22;2509;49.902;8.600;2022-09-20T06:04:38;9.50;99.90
4985;DHT22;2509;49.902;8.600;2022-09-20T06:07:56;9.70;99.90
4985;DHT22;2509;49.902;8.600;2022-09-20T06:11:13;9.70;99.90
4985;DHT22;2509;49.902;8.600;2022-09-20T06:14:31;9.80;99.90
4985;DHT22;2509;49.902;8.600;2022-09-20T06:17:36;9.80;99.90
4985;DHT22;2509;49.902;8.600;2022-09-20T06:20:45;9.90;99.90
4985;DHT22;2509;49.902;8.600;2022-09-20T06:23:49;10.00;99.90
4985;DHT22;2509;49.902;8.600;2022-09-20T06:26:54;10.10;99.90
4985;DHT22;2509;49.902;8.600;2022-09-20T06:30:03;10.10;99.90
4985;DHT22;2509;49.902;8.600;2022-09-20T06:33:14;10.20;99.90
4985;DHT22;2509;49.902;8.600;2022-09-20T06:36:20;10.20;99.90
4985;DHT22;2509;49.902;8.600;2022-09-20T06:39:51;10.30;99.90
4985;DHT22;2509;49.902;8.600;2022-09-20T06:43:14;10.40;99.90
4985;DHT22;2509;49.902;8.600;2022-09-20T06:46:16;10.40;99.90
4985;DHT22;2509;49.902;8.600;2022-09-20T06:49:18;10.40;99.90
4985;DHT22;2509;49.902;8.600;2022-09-20T06:52:21;10.50;99.90
4985;DHT22;2509;49.902;8.600;2022-09-20T06:55:26;10.40;99.90
4985;DHT22;2509;49.902;8.600;2022-09-20T06:58:30;10.50;99.90
4985;DHT22;2509;49.902;8.600;2022-09-20T07:01:32;10.60;99.90
4985;DHT22;2509;49.902;8.600;2022-09-20T07:04:34;10.60;99.90
4985;DHT22;2509;49.902;8.600;2022-09-20T07:07:36;10.60;99.90
4985;DHT22;2509;49.902;8.600;2022-09-20T07:10:38;10.60;99.90
4985;DHT22;2509;49.902;8.600;2022-09-20T07:13:42;10.70;99.90
4985;DHT22;2509;49.902;8.600;2022-09-20T07:16:44;10.80;99.90
4985;DHT22;2509;49.902;8.600;2022-09-20T07:19:46;10.90;99.90
4985;DHT22;2509;49.902;8.600;2022-09-20T07:22:48;11.00;99.90
4985;DHT22;2509;49.902;8.600;2022-09-20T07:25:50;11.30;99.90
4985;DHT22;2509;49.902;8.600;2022-09-20T07:28:54;11.40;99.90
4985;DHT22;2509;49.902;8.600;2022-09-20T07:31:56;11.50;99.90
4985;DHT22;2509;49.902;8.600;2022-09-20T07:34:58;11.50;99.90
4985;DHT22;2509;49.902;8.600;2022-09-20T07:38:01;11.60;99.90
4985;DHT22;2509;49.902;8.600;2022-09-20T07:41:03;11.70;99.90
4985;DHT22;2509;49.902;8.600;2022-09-20T07:44:07;11.90;99.90
4985;DHT22;2509;49.902;8.600;2022-09-20T07:47:21;12.10;99.90
4985;DHT22;2509;49.902;8.600;2022-09-20T07:50:25;12.20;99.90
4985;DHT22;2509;49.902;8.600;2022-09-20T07:53:27;12.20;99.90
4985;DHT22;2509;49.902;8.600;2022-09-20T07:56:28;12.30;99.90
4985;DHT22;2509;49.902;8.600;2022-09-20T07:59:31;12.50;99.90
4985;DHT22;2509;49.902;8.600;2022-09-20T08:02:33;12.70;99.90
4985;DHT22;2509;49.902;8.600;2022-09-20T08:05:35;12.80;99.90
4985;DHT22;2509;49.902;8.600;2022-09-20T08:08:38;13.00;99.90
4985;DHT22;2509;49.902;8.600;2022-09-20T08:11:40;13.10;99.90
4985;DHT22;2509;49.902;8.600;2022-09-20T08:14:44;13.30;99.90
4985;DHT22;2509;49.902;8.600;2022-09-20T08:17:46;13.50;99.90
4985;DHT22;2509;49.902;8.600;2022-09-20T08:20:48;13.60;99.90
4985;DHT22;2509;49.902;8.600;2022-09-20T08:23:51;13.60;99.90
4985;DHT22;2509;49.902;8.600;2022-09-20T08:26:53;13.70;99.90
4985;DHT22;2509;49.902;8.600;2022-09-20T08:34:04;13.70;99.90
4985;DHT22;2509;49.902;8.600;2022-09-20T08:37:08;13.60;99.90
4985;DHT22;2509;49.902;8.600;2022-09-20T08:40:11;13.70;99.90
4985;DHT22;2509;49.902;8.600;2022-09-20T08:43:15;13.70;99.90
4985;DHT22;2509;49.902;8.600;2022-09-20T08:46:20;13.90;99.90
4985;DHT22;2509;49.902;8.600;2022-09-20T08:49:26;14.30;99.90
4985;DHT22;2509;49.902;8.600;2022-09-20T08:52:30;14.70;99.90
4985;DHT22;2509;49.902;8.600;2022-09-20T08:55:33;14.90;99.90
4985;DHT22;2509;49.902;8.600;2022-09-20T08:58:39;15.10;99.90
4985;DHT22;2509;49.902;8.600;2022-09-20T09:01:40;15.20;99.90
4985;DHT22;2509;49.902;8.600;2022-09-20T09:04:44;15.20;99.90
4985;DHT22;2509;49.902;8.600;2022-09-20T09:07:47;15.10;99.90
4985;DHT22;2509;49.902;8.600;2022-09-20T09:10:52;15.20;99.90
4985;DHT22;2509;49.902;8.600;2022-09-20T09:13:58;15.20;99.90
4985;DHT22;2509;49.902;8.600;2022-09-20T09:17:01;15.10;99.90
4985;DHT22;2509;49.902;8.600;2022-09-20T09:20:15;15.20;99.90
4985;DHT22;2509;49.902;8.600;2022-09-20T09:23:22;15.30;99.90
4985;DHT22;2509;49.902;8.600;2022-09-20T09:26:27;15.30;99.90
4985;DHT22;2509;49.902;8.600;2022-09-20T09:29:29;15.30;99.90
4985;DHT22;2509;49.902;8.600;2022-09-20T09:32:31;15.50;99.90
4985;DHT22;2509;49.902;8.600;2022-09-20T09:35:36;15.90;99.90
4985;DHT22;2509;49.902;8.600;2022-09-20T09:38:40;16.20;99.90
4985;DHT22;2509;49.902;8.600;2022-09-20T09:41:44;16.40;99.90
4985;DHT22;2509;49.902;8.600;2022-09-20T09:44:46;16.30;99.90
4985;DHT22;2509;49.902;8.600;2022-09-20T09:47:49;16.30;99.90
4985;DHT22;2509;49.902;8.600;2022-09-20T09:51:09;16.20;99.90
4985;DHT22;2509;49.902;8.600;2022-09-20T09:54:15;16.30;99.90
4985;DHT22;2509;49.902;8.600;2022-09-20T09:57:31;16.50;99.90
4985;DHT22;2509;49.902;8.600;2022-09-20T10:00:35;16.80;99.90
4985;DHT22;2509;49.902;8.600;2022-09-20T10:03:51;16.90;99.90
4985;DHT22;2509;49.902;8.600;2022-09-20T10:07:02;17.20;99.90
4985;DHT22;2509;49.902;8.600;2022-09-20T10:10:13;17.80;99.90
4985;DHT22;2509;49.902;8.600;2022-09-20T10:13:24;18.20;99.90
4985;DHT22;2509;49.902;8.600;2022-09-20T10:16:36;18.40;99.90
4985;DHT22;2509;49.902;8.600;2022-09-20T10:19:52;18.10;99.90
4985;DHT22;2509;49.902;8.600;2022-09-20T10:23:07;17.70;99.90
4985;DHT22;2509;49.902;8.600;2022-09-20T10:26:28;17.30;99.90
4985;DHT22;2509;49.902;8.600;2022-09-20T10:29:41;17.10;99.90
4985;DHT22;2509;49.902;8.600;2022-09-20T10:32:57;16.90;99.90
4985;DHT22;2509;49.902;8.600;2022-09-20T10:36:14;16.80;99.90
4985;DHT22;2509;49.902;8.600;2022-09-20T10:39:24;16.70;99.90
4985;DHT22;2509;49.902;8.600;2022-09-20T10:42:35;16.70;99.90
4985;DHT22;2509;49.902;8.600;2022-09-20T10:46:07;16.80;99.90
4985;DHT22;2509;49.902;8.600;2022-09-20T10:49:28;16.80;99.90
4985;DHT22;2509;49.902;8.600;2022-09-20T10:52:54;17.00;99.90
4985;DHT22;2509;49.902;8.600;2022-09-20T10:56:13;17.00;99.90
4985;DHT22;2509;49.902;8.600;2022-09-20T10:59:33;17.00;99.90
4985;DHT22;2509;49.902;8.600;2022-09-20T11:02:52;17.00;99.90
4985;DHT22;2509;49.902;8.600;2022-09-20T11:06:05;17.20;99.90
4985;DHT22;2509;49.902;8.600;2022-09-20T11:09:16;17.50;99.90
4985;DHT22;2509;49.902;8.600;2022-09-20T11:12:25;17.70;99.90
4985;DHT22;2509;49.902;8.600;2022-09-20T11:15:31;17.60;99.90
4985;DHT22;2509;49.902;8.600;2022-09-20T11:18:38;17.30;99.90
4985;DHT22;2509;49.902;8.600;2022-09-20T11:21:45;17.20;99.90
4985;DHT22;2509;49.902;8.600;2022-09-20T11:24:50;17.10;99.90
4985;DHT22;2509;49.902;8.600;2022-09-20T11:28:00;16.80;99.90
4985;DHT22;2509;49.902;8.600;2022-09-20T11:31:08;16.50;99.90
4985;DHT22;2509;49.902;8.600;2022-09-20T11:34:15;16.40;99.90
4985;DHT22;2509;49.902;8.600;2022-09-20T11:37:19;16.20;99.90
4985;DHT22;2509;49.902;8.600;2022-09-20T11:40:27;16.10;99.90
4985;DHT22;2509;49.902;8.600;2022-09-20T11:43:32;16.10;99.90
4985;DHT22;2509;49.902;8.600;2022-09-20T11:46:38;16.10;99.90
4985;DHT22;2509;49.902;8.600;2022-09-20T11:49:54;16.40;99.90
4985;DHT22;2509;49.902;8.600;2022-09-20T11:53:05;16.60;99.90
4985;DHT22;2509;49.902;8.600;2022-09-20T11:56:16;17.50;99.90
4985;DHT22;2509;49.902;8.600;2022-09-20T11:59:28;18.70;99.80
4985;DHT22;2509;49.902;8.600;2022-09-20T12:02:34;19.80;98.90
4985;DHT22;2509;49.902;8.600;2022-09-20T12:05:39;20.70;94.90
4985;DHT22;2509;49.902;8.600;2022-09-20T12:08:41;20.40;92.90
4985;DHT22;2509;49.902;8.600;2022-09-20T12:11:43;19.70;96.90
4985;DHT22;2509;49.902;8.600;2022-09-20T12:14:54;19.30;96.70
4985;DHT22;2509;49.902;8.600;2022-09-20T12:22:16;19.30;98.60
4985;DHT22;2509;49.902;8.600;2022-09-20T12:25:36;19.00;96.80
4985;DHT22;2509;49.902;8.600;2022-09-20T12:28:40;19.00;97.40
4985;DHT22;2509;49.902;8.600;2022-09-20T12:31:49;19.30;98.70
4985;DHT22;2509;49.902;8.600;2022-09-20T12:34:51;19.60;97.50
4985;DHT22;2509;49.902;8.600;2022-09-20T12:37:53;20.40;95.60
4985;DHT22;2509;49.902;8.600;2022-09-20T12:41:13;21.70;92.40
4985;DHT22;2509;49.902;8.600;2022-09-20T12:44:24;22.60;90.20
4985;DHT22;2509;49.902;8.600;2022-09-20T12:47:30;23.40;87.90
4985;DHT22;2509;49.902;8.600;2022-09-20T12:50:32;24.00;84.70
4985;DHT22;2509;49.902;8.600;2022-09-20T12:54:00;24.50;85.70
4985;DHT22;2509;49.902;8.600;2022-09-20T12:57:16;24.90;83.70
4985;DHT22;2509;49.902;8.600;2022-09-20T13:00:30;25.30;81.50
4985;DHT22;2509;49.902;8.600;2022-09-20T13:03:38;25.30;80.30
4985;DHT22;2509;49.902;8.600;2022-09-20T13:06:40;25.60;79.30
4985;DHT22;2509;49.902;8.600;2022-09-20T13:09:43;25.50;78.20
4985;DHT22;2509;49.902;8.600;2022-09-20T13:12:45;24.60;79.50
4985;DHT22;2509;49.902;8.600;2022-09-20T13:15:49;23.50;81.60
4985;DHT22;2509;49.902;8.600;2022-09-20T13:18:58;23.00;83.70
4985;DHT22;2509;49.902;8.600;2022-09-20T13:22:03;22.40;85.50
4985;DHT22;2509;49.902;8.600;2022-09-20T13:25:09;22.20;87.60
4985;DHT22;2509;49.902;8.600;2022-09-20T13:28:20;22.80;87.80
4985;DHT22;2509;49.902;8.600;2022-09-20T13:31:29;22.90;85.90
4985;DHT22;2509;49.902;8.600;2022-09-20T13:34:32;22.60;86.20
4985;DHT22;2509;49.902;8.600;2022-09-20T13:37:35;21.90;88.80
4985;DHT22;2509;49.902;8.600;2022-09-20T13:40:39;21.10;89.80
4985;DHT22;2509;49.902;8.600;2022-09-20T13:43:42;20.60;93.60
4985;DHT22;2509;49.902;8.600;2022-09-20T13:46:45;20.10;97.00
4985;DHT22;2509;49.902;8.600;2022-09-20T13:49:48;19.90;99.90
4985;DHT22;2509;49.902;8.600;2022-09-20T13:52:52;19.50;99.90
4985;DHT22;2509;49.902;8.600;2022-09-20T13:55:54;19.20;99.90
4985;DHT22;2509;49.902;8.600;2022-09-20T13:59:02;19.00;99.90
4985;DHT22;2509;49.902;8.600;2022-09-20T14:02:19;19.00;99.90
4985;DHT22;2509;49.902;8.600;2022-09-20T14:05:24;18.90;99.90
4985;DHT22;2509;49.902;8.600;2022-09-20T14:08:28;19.30;99.90
4985;DHT22;2509;49.902;8.600;2022-09-20T14:11:32;20.70;99.90
4985;DHT22;2509;49.902;8.600;2022-09-20T14:14:36;21.20;95.60
4985;DHT22;2509;49.902;8.600;2022-09-20T14:17:38;21.60;96.30
4985;DHT22;2509;49.902;8.600;2022-09-20T14:20:42;22.30;95.20
4985;DHT22;2509;49.902;8.600;2022-09-20T14:23:51;22.50;93.90
4985;DHT22;2509;49.902;8.600;2022-09-20T14:27:15;22.30;93.80
4985;DHT22;2509;49.902;8.600;2022-09-20T14:30:28;22.10;93.80
4985;DHT22;2509;49.902;8.600;2022-09-20T14:33:30;22.00;92.90
4985;DHT22;2509;49.902;8.600;2022-09-20T14:36:33;22.00;93.40
4985;DHT22;2509;49.902;8.600;2022-09-20T14:39:45;22.20;91.90
4985;DHT22;2509;49.902;8.600;2022-09-20T14:42:51;21.90;91.20
4985;DHT22;2509;49.902;8.600;2022-09-20T14:45:55;21.30;91.80
4985;DHT22;2509;49.902;8.600;2022-09-20T14:49:19;20.80;92.30
4985;DHT22;2509;49.902;8.600;2022-09-20T14:52:36;20.20;93.00
4985;DHT22;2509;49.902;8.600;2022-09-20T14:55:39;19.80;95.20
4985;DHT22;2509;49.902;8.600;2022-09-20T14:59:02;19.60;96.50
4985;DHT22;2509;49.902;8.600;2022-09-20T15:02:12;19.30;95.60
4985;DHT22;2509;49.902;8.600;2022-09-20T15:05:20;19.00;96.50
4985;DHT22;2509;49.902;8.600;2022-09-20T15:08:25;18.80;97.20
4985;DHT22;2509;49.902;8.600;2022-09-20T15:11:27;18.60;97.00
4985;DHT22;2509;49.902;8.600;2022-09-20T15:14:29;18.50;97.40
4985;DHT22;2509;49.902;8.600;2022-09-20T15:17:31;18.30;96.60
4985;DHT22;2509;49.902;8.600;2022-09-20T15:20:33;18.00;97.60
4985;DHT22;2509;49.902;8.600;2022-09-20T15:23:36;17.80;98.10
4985;DHT22;2509;49.902;8.600;2022-09-20T15:26:38;17.70;98.40
4985;DHT22;2509;49.902;8.600;2022-09-20T15:29:40;17.60;99.00
4985;DHT22;2509;49.902;8.600;2022-09-20T15:32:42;17.60;98.50
4985;DHT22;2509;49.902;8.600;2022-09-20T15:35:45;17.50;97.90
4985;DHT22;2509;49.902;8.600;2022-09-20T15:38:48;17.50;97.30
4985;DHT22;2509;49.902;8.600;2022-09-20T15:41:51;17.50;97.90
4985;DHT22;2509;49.902;8.600;2022-09-20T15:44:53;17.40;98.20
4985;DHT22;2509;49.902;8.600;2022-09-20T15:47:56;17.40;98.90
4985;DHT22;2509;49.902;8.600;2022-09-20T15:50:59;17.40;99.60
4985;DHT22;2509;49.902;8.600;2022-09-20T15:54:04;17.60;99.60
4985;DHT22;2509;49.902;8.600;2022-09-20T15:57:07;17.70;98.20
4985;DHT22;2509;49.902;8.600;2022-09-20T16:00:09;18.10;97.80
4985;DHT22;2509;49.902;8.600;2022-09-20T16:03:11;18.20;97.00
4985;DHT22;2509;49.902;8.600;2022-09-20T16:06:13;18.10;97.50
4985;DHT22;2509;49.902;8.600;2022-09-20T16:09:16;18.00;97.90
4985;DHT22;2509;49.902;8.600;2022-09-20T16:12:19;18.00;98.20
4985;DHT22;2509;49.902;8.600;2022-09-20T16:15:21;17.90;98.50
4985;DHT22;2509;49.902;8.600;2022-09-20T16:18:23;17.80;99.40
4985;DHT22;2509;49.902;8.600;2022-09-20T16:21:44;17.60;99.40
4985;DHT22;2509;49.902;8.600;2022-09-20T16:24:47;17.50;99.20
4985;DHT22;2509;49.902;8.600;2022-09-20T16:27:49;17.40;99.50
4985;DHT22;2509;49.902;8.600;2022-09-20T16:30:55;17.20;99.60
4985;DHT22;2509;49.902;8.600;2022-09-20T16:33:57;16.90;99.50
4985;DHT22;2509;49.902;8.600;2022-09-20T16:37:00;16.70;99.90
4985;DHT22;2509;49.902;8.600;2022-09-20T16:40:04;16.50;99.90
4985;DHT22;2509;49.902;8.600;2022-09-20T16:43:06;16.40;99.90
4985;DHT22;2509;49.902;8.600;2022-09-20T16:46:08;16.40;99.90
4985;DHT22;2509;49.902;8.600;2022-09-20T16:49:11;16.30;99.90
4985;DHT22;2509;49.902;8.600;2022-09-20T16:52:13;16.20;99.90
4985;DHT22;2509;49.902;8.600;2022-09-20T16:55:17;16.10;99.90
4985;DHT22;2509;49.902;8.600;2022-09-20T16:58:25;16.00;99.90
4985;DHT22;2509;49.902;8.600;2022-09-20T17:01:27;15.80;99.90
4985;DHT22;2509;49.902;8.600;2022-09-20T17:04:29;15.70;99.90
4985;DHT22;2509;49.902;8.600;2022-09-20T17:07:31;15.50;99.90
4985;DHT22;2509;49.902;8.600;2022-09-20T17:10:34;15.40;99.90
4985;DHT22;2509;49.902;8.600;2022-09-20T17:13:37;15.40;99.90
4985;DHT22;2509;49.902;8.600;2022-09-20T17:16:40;15.30;99.90
4985;DHT22;2509;49.902;8.600;2022-09-20T17:19:42;15.20;99.90
4985;DHT22;2509;49.902;8.600;2022-09-20T17:22:44;15.10;99.90
4985;DHT22;2509;49.902;8.600;2022-09-20T17:25:47;15.00;99.90
4985;DHT22;2509;49.902;8.600;2022-09-20T17:28:51;14.90;99.90
4985;DHT22;2509;49.902;8.600;2022-09-20T17:31:55;14.80;99.90
4985;DHT22;2509;49.902;8.600;2022-09-20T17:34:58;14.70;99.90
4985;DHT22;2509;49.902;8.600;2022-09-20T17:38:00;14.60;99.90
4985;DHT22;2509;49.902;8.600;2022-09-20T17:41:05;14.50;99.90
4985;DHT22;2509;49.902;8.600;2022-09-20T17:44:08;14.40;99.90
4985;DHT22;2509;49.902;8.600;2022-09-20T17:47:11;14.30;99.90
4985;DHT22;2509;49.902;8.600;2022-09-20T17:50:13;14.30;99.90
4985;DHT22;2509;49.902;8.600;2022-09-20T17:53:14;14.20;99.90
4985;DHT22;2509;49.902;8.600;2022-09-20T17:56:18;14.00;99.90
4985;DHT22;2509;49.902;8.600;2022-09-20T17:59:23;14.00;99.90
4985;DHT22;2509;49.902;8.600;2022-09-20T18:02:25;13.90;99.90
4985;DHT22;2509;49.902;8.600;2022-09-20T18:05:27;13.90;99.90
4985;DHT22;2509;49.902;8.600;2022-09-20T18:08:28;13.90;99.90
4985;DHT22;2509;49.902;8.600;2022-09-20T18:11:33;13.80;99.90
4985;DHT22;2509;49.902;8.600;2022-09-20T18:14:35;13.70;99.90
4985;DHT22;2509;49.902;8.600;2022-09-20T18:17:36;13.60;99.90
4985;DHT22;2509;49.902;8.600;2022-09-20T18:20:38;13.60;99.90
4985;DHT22;2509;49.902;8.600;2022-09-20T18:23:40;13.60;99.90
4985;DHT22;2509;49.902;8.600;2022-09-20T18:26:43;13.60;99.90
4985;DHT22;2509;49.902;8.600;2022-09-20T18:29:45;13.60;99.90
4985;DHT22;2509;49.902;8.600;2022-09-20T18:32:49;13.60;99.90
4985;DHT22;2509;49.902;8.600;2022-09-20T18:35:51;13.70;99.90
4985;DHT22;2509;49.902;8.600;2022-09-20T18:38:53;13.70;99.90
4985;DHT22;2509;49.902;8.600;2022-09-20T18:41:56;13.70;99.90
4985;DHT22;2509;49.902;8.600;2022-09-20T18:44:58;13.70;99.90
4985;DHT22;2509;49.902;8.600;2022-09-20T18:48:00;13.70;99.90
4985;DHT22;2509;49.902;8.600;2022-09-20T18:51:03;13.70;99.90
4985;DHT22;2509;49.902;8.600;2022-09-20T18:54:05;13.80;99.90
4985;DHT22;2509;49.902;8.600;2022-09-20T18:57:10;13.80;99.90
4985;DHT22;2509;49.902;8.600;2022-09-20T19:00:12;13.80;99.90
4985;DHT22;2509;49.902;8.600;2022-09-20T19:03:17;13.80;99.90
4985;DHT22;2509;49.902;8.600;2022-09-20T19:06:22;13.80;99.90
4985;DHT22;2509;49.902;8.600;2022-09-20T19:09:29;13.80;99.90
4985;DHT22;2509;49.902;8.600;2022-09-20T19:12:39;13.70;99.90
4985;DHT22;2509;49.902;8.600;2022-09-20T19:15:50;13.70;99.90
4985;DHT22;2509;49.902;8.600;2022-09-20T19:22:26;13.70;99.90
4985;DHT22;2509;49.902;8.600;2022-09-20T19:25:34;13.70;99.90
4985;DHT22;2509;49.902;8.600;2022-09-20T19:28:42;13.70;99.90
4985;DHT22;2509;49.902;8.600;2022-09-20T19:31:46;13.70;99.90
4985;DHT22;2509;49.902;8.600;2022-09-20T19:34:50;13.70;99.90
4985;DHT22;2509;49.902;8.600;2022-09-20T19:37:59;13.70;99.90
4985;DHT22;2509;49.902;8.600;2022-09-20T19:41:09;13.70;99.90
4985;DHT22;2509;49.902;8.600;2022-09-20T19:44:29;13.60;99.90
4985;DHT22;2509;49.902;8.600;2022-09-20T19:47:38;13.60;99.90
4985;DHT22;2509;49.902;8.600;2022-09-20T19:50:48;13.60;99.90
4985;DHT22;2509;49.902;8.600;2022-09-20T19:53:52;13.60;99.90
4985;DHT22;2509;49.902;8.600;2022-09-20T19:56:56;13.50;99.90
4985;DHT22;2509;49.902;8.600;2022-09-20T20:00:00;13.50;99.90
4985;DHT22;2509;49.902;8.600;2022-09-20T20:03:03;13.50;99.90
4985;DHT22;2509;49.902;8.600;2022-09-20T20:06:07;13.40;99.90
4985;DHT22;2509;49.902;8.600;2022-09-20T20:09:19;13.40;99.90
4985;DHT22;2509;49.902;8.600;2022-09-20T20:12:28;13.40;99.90
4985;DHT22;2509;49.902;8.600;2022-09-20T20:15:39;13.40;99.90
4985;DHT22;2509;49.902;8.600;2022-09-20T20:18:54;13.30;99.90
4985;DHT22;2509;49.902;8.600;2022-09-20T20:22:07;13.30;99.90
4985;DHT22;2509;49.902;8.600;2022-09-20T20:25:17;13.30;99.90
4985;DHT22;2509;49.902;8.600;2022-09-20T20:28:20;13.30;99.90
4985;DHT22;2509;49.902;8.600;2022-09-20T20:31:23;13.20;99.90
4985;DHT22;2509;49.902;8.600;2022-09-20T20:34:25;13.20;99.90
4985;DHT22;2509;49.902;8.600;2022-09-20T20:37:27;13.20;99.90
4985;DHT22;2509;49.902;8.600;2022-09-20T20:40:31;13.20;99.90
4985;DHT22;2509;49.902;8.600;2022-09-20T20:43:34;13.10;99.90
4985;DHT22;2509;49.902;8.600;2022-09-20T20:46:37;13.10;99.90
4985;DHT22;2509;49.902;8.600;2022-09-20T20:49:39;13.00;99.90
4985;DHT22;2509;49.902;8.600;2022-09-20T20:52:41;13.00;99.90